sensor_id;sensor_type;location;lat;lon;timestamp;pressure;altitude;pressure_sealevel;temperature;humidity
62791;BME280;48830;53.426;10.300;2024-02-26T00:00:26;100278.69;;;23.21;64.84
62791;BME280;48830;53.426;10.300;2024-02-26T00:02:51;100276.84;;;23.23;64.47
62791;BME280;48830;53.426;10.300;2024-02-26T00:05:16;100278.69;;;23.21;64.33
62791;BME280;48830;53.426;10.300;2024-02-26T00:07:42;100274.22;;;23.23;64.33
62791;BME280;48830;53.426;10.300;2024-02-26T00:10:08;100282.06;;;23.23;64.43
62791;BME280;48830;53.426;10.300;2024-02-26T00:12:33;100265.66;;;23.20;64.57
62791;BME280;48830;53.426;10.300;2024-02-26T00:14:59;100282.34;;;23.17;64.54
62791;BME280;48830;53.426;10.300;2024-02-26T00:17:24;100277.03;;;23.19;64.50
62791;BME280;48830;53.426;10.300;2024-02-26T00:19:50;100286.63;;;23.20;64.76
62791;BME280;48830;53.426;10.300;2024-02-26T00:22:15;100275.28;;;23.19;64.39
62791;BME280;48830;53.426;10.300;2024-02-26T00:24:41;100270.94;;;23.18;64.32
62791;BME280;48830;53.426;10.300;2024-02-26T00:27:06;100266.63;;;23.17;64.57
62791;BME280;48830;53.426;10.300;2024-02-26T00:29:32;100270.16;;;23.16;64.76
62791;BME280;48830;53.426;10.300;2024-02-26T00:31:58;100269.41;;;23.14;64.68
62791;BME280;48830;53.426;10.300;2024-02-26T00:34:23;100280.78;;;23.13;64.72
62791;BME280;48830;53.426;10.300;2024-02-26T00:36:49;100274.00;;;23.09;64.67
62791;BME280;48830;53.426;10.300;2024-02-26T00:39:14;100285.38;;;23.08;65.23
62791;BME280;48830;53.426;10.300;2024-02-26T00:41:40;100271.41;;;23.08;64.76
62791;BME280;48830;53.426;10.300;2024-02-26T00:44:06;100278.16;;;23.13;64.89
62791;BME280;48830;53.426;10.300;2024-02-26T00:46:32;100278.41;;;23.09;64.57
62791;BME280;48830;53.426;10.300;2024-02-26T00:48:57;100282.63;;;23.11;64.39
62791;BME280;48830;53.426;10.300;2024-02-26T00:51:23;100282.63;;;23.11;64.42
62791;BME280;48830;53.426;10.300;2024-02-26T00:53:48;100281.91;;;23.08;64.56
62791;BME280;48830;53.426;10.300;2024-02-26T00:56:14;100282.00;;;23.06;64.88
62791;BME280;48830;53.426;10.300;2024-02-26T00:58:40;100282.06;;;23.04;64.58
62791;BME280;48830;53.426;10.300;2024-02-26T01:01:05;100290.91;;;23.02;64.65
62791;BME280;48830;53.426;10.300;2024-02-26T01:03:30;100285.53;;;23.05;64.62
62791;BME280;48830;53.426;10.300;2024-02-26T01:05:56;100277.50;;;23.08;64.89
62791;BME280;48830;53.426;10.300;2024-02-26T01:08:21;100281.78;;;23.11;64.89
62791;BME280;48830;53.426;10.300;2024-02-26T01:10:47;100278.53;;;23.05;64.51
62791;BME280;48830;53.426;10.300;2024-02-26T01:13:12;100278.53;;;23.05;64.88
62791;BME280;48830;53.426;10.300;2024-02-26T01:15:37;100278.59;;;23.04;64.73
62791;BME280;48830;53.426;10.300;2024-02-26T01:18:03;100284.72;;;23.03;64.91
62791;BME280;48830;53.426;10.300;2024-02-26T01:20:28;100286.59;;;23.01;64.87
62791;BME280;48830;53.426;10.300;2024-02-26T01:22:53;100279.66;;;23.00;64.54
62791;BME280;48830;53.426;10.300;2024-02-26T01:25:19;100286.59;;;23.01;64.79
62791;BME280;48830;53.426;10.300;2024-02-26T01:27:44;100288.44;;;22.99;64.93
62791;BME280;48830;53.426;10.300;2024-02-26T01:30:10;100290.84;;;23.03;64.41
62791;BME280;48830;53.426;10.300;2024-02-26T01:32:36;100282.25;;;23.00;64.59
62791;BME280;48830;53.426;10.300;2024-02-26T01:35:02;100284.13;;;22.98;64.88
62791;BME280;48830;53.426;10.300;2024-02-26T01:37:35;100291.91;;;22.99;64.62
62791;BME280;48830;53.426;10.300;2024-02-26T01:40:01;100291.06;;;22.99;64.88
62791;BME280;48830;53.426;10.300;2024-02-26T01:42:30;100279.06;;;22.93;65.01
62791;BME280;48830;53.426;10.300;2024-02-26T01:44:56;100273.75;;;22.95;64.76
62791;BME280;48830;53.426;10.300;2024-02-26T01:47:22;100275.59;;;22.93;64.54
62791;BME280;48830;53.426;10.300;2024-02-26T01:49:48;100283.38;;;22.94;64.98
62791;BME280;48830;53.426;10.300;2024-02-26T01:52:13;100286.97;;;22.92;64.79
62791;BME280;48830;53.426;10.300;2024-02-26T01:54:40;100283.59;;;22.90;65.15
62791;BME280;48830;53.426;10.300;2024-02-26T01:57:06;100284.31;;;22.93;64.55
62791;BME280;48830;53.426;10.300;2024-02-26T01:59:33;100280.88;;;22.91;64.70
62791;BME280;48830;53.426;10.300;2024-02-26T02:02:01;100283.50;;;22.91;64.53
62791;BME280;48830;53.426;10.300;2024-02-26T02:04:27;100285.28;;;22.91;64.82
62791;BME280;48830;53.426;10.300;2024-02-26T02:06:53;100288.81;;;22.90;64.91
62791;BME280;48830;53.426;10.300;2024-02-26T02:09:19;100291.59;;;22.85;64.86
62791;BME280;48830;53.426;10.300;2024-02-26T02:11:44;100295.91;;;22.88;65.02
62791;BME280;48830;53.426;10.300;2024-02-26T02:14:10;100295.75;;;22.91;64.33
62791;BME280;48830;53.426;10.300;2024-02-26T02:16:35;100297.66;;;22.87;64.52
62791;BME280;48830;53.426;10.300;2024-02-26T02:19:01;100297.69;;;22.86;65.04
62791;BME280;48830;53.426;10.300;2024-02-26T02:21:26;100295.06;;;22.86;64.60
62791;BME280;48830;53.426;10.300;2024-02-26T02:23:51;100296.13;;;22.82;65.04
62791;BME280;48830;53.426;10.300;2024-02-26T02:26:17;100296.00;;;22.85;65.09
62791;BME280;48830;53.426;10.300;2024-02-26T02:28:44;100298.63;;;22.85;64.54
62791;BME280;48830;53.426;10.300;2024-02-26T02:31:11;100294.16;;;22.87;64.61
62791;BME280;48830;53.426;10.300;2024-02-26T02:33:37;100290.69;;;22.88;64.87
62791;BME280;48830;53.426;10.300;2024-02-26T02:36:02;100290.69;;;22.88;64.83
62791;BME280;48830;53.426;10.300;2024-02-26T02:38:28;100287.28;;;22.84;65.00
62791;BME280;48830;53.426;10.300;2024-02-26T02:40:55;100294.16;;;22.87;64.47
62791;BME280;48830;53.426;10.300;2024-02-26T02:43:20;100293.38;;;22.85;64.64
62791;BME280;48830;53.426;10.300;2024-02-26T02:45:46;100284.56;;;22.87;64.97
62791;BME280;48830;53.426;10.300;2024-02-26T02:48:11;100285.63;;;22.82;64.78
62791;BME280;48830;53.426;10.300;2024-02-26T02:50:37;100285.63;;;22.82;64.75
62791;BME280;48830;53.426;10.300;2024-02-26T02:53:03;100281.28;;;22.82;64.38
62791;BME280;48830;53.426;10.300;2024-02-26T02:55:28;100287.22;;;22.86;64.86
62791;BME280;48830;53.426;10.300;2024-02-26T02:57:54;100287.47;;;22.79;64.85
62791;BME280;48830;53.426;10.300;2024-02-26T03:00:19;100296.28;;;22.78;64.87
62791;BME280;48830;53.426;10.300;2024-02-26T03:02:45;100298.97;;;22.77;64.79
62791;BME280;48830;53.426;10.300;2024-02-26T03:05:11;100294.41;;;22.80;64.82
62791;BME280;48830;53.426;10.300;2024-02-26T03:07:37;100301.38;;;22.82;64.41
62791;BME280;48830;53.426;10.300;2024-02-26T03:10:02;100307.47;;;22.82;64.89
62791;BME280;48830;53.426;10.300;2024-02-26T03:12:28;100306.75;;;22.78;64.81
62791;BME280;48830;53.426;10.300;2024-02-26T03:14:54;100306.47;;;22.85;64.51
62791;BME280;48830;53.426;10.300;2024-02-26T03:17:20;100304.13;;;22.78;64.80
62791;BME280;48830;53.426;10.300;2024-02-26T03:19:46;100297.97;;;22.79;64.79
62791;BME280;48830;53.426;10.300;2024-02-26T03:22:12;100307.53;;;22.80;64.84
62791;BME280;48830;53.426;10.300;2024-02-26T03:24:38;100317.97;;;22.82;64.65
62791;BME280;48830;53.426;10.300;2024-02-26T03:27:03;100313.56;;;22.83;64.62
62791;BME280;48830;53.426;10.300;2024-02-26T03:29:35;100321.44;;;22.83;64.52
62791;BME280;48830;53.426;10.300;2024-02-26T03:34:25;100318.09;;;22.79;64.53
62791;BME280;48830;53.426;10.300;2024-02-26T03:36:51;100319.72;;;22.82;64.00
62791;BME280;48830;53.426;10.300;2024-02-26T03:39:17;100315.38;;;22.80;64.11
62791;BME280;48830;53.426;10.300;2024-02-26T03:41:42;100318.81;;;22.83;64.48
62791;BME280;48830;53.426;10.300;2024-02-26T03:44:08;100326.72;;;22.81;64.58
62791;BME280;48830;53.426;10.300;2024-02-26T03:46:33;100331.06;;;22.82;64.03
62791;BME280;48830;53.426;10.300;2024-02-26T03:48:58;100335.31;;;22.85;63.90
62791;BME280;48830;53.426;10.300;2024-02-26T03:51:24;100340.56;;;22.85;64.19
62791;BME280;48830;53.426;10.300;2024-02-26T03:53:49;100341.47;;;22.84;64.33
62791;BME280;48830;53.426;10.300;2024-02-26T03:56:14;100347.56;;;22.84;64.23
62791;BME280;48830;53.426;10.300;2024-02-26T03:58:40;100337.84;;;22.88;64.30
62791;BME280;48830;53.426;10.300;2024-02-26T04:01:09;100342.16;;;22.89;63.73
62791;BME280;48830;53.426;10.300;2024-02-26T04:03:34;100353.44;;;22.91;64.09
62791;BME280;48830;53.426;10.300;2024-02-26T04:06:00;100364.84;;;22.90;64.08
62791;BME280;48830;53.426;10.300;2024-02-26T04:08:26;100368.22;;;22.92;63.85
62791;BME280;48830;53.426;10.300;2024-02-26T04:10:51;100376.09;;;22.92;63.74
62791;BME280;48830;53.426;10.300;2024-02-26T04:13:17;100386.47;;;22.95;63.77
62791;BME280;48830;53.426;10.300;2024-02-26T04:15:43;100392.63;;;22.94;63.51
62791;BME280;48830;53.426;10.300;2024-02-26T04:18:08;100394.25;;;22.96;63.74
62791;BME280;48830;53.426;10.300;2024-02-26T04:20:33;100399.50;;;22.96;63.44
62791;BME280;48830;53.426;10.300;2024-02-26T04:22:59;100403.03;;;22.95;63.81
62791;BME280;48830;53.426;10.300;2024-02-26T04:25:24;100408.22;;;22.97;63.48
62791;BME280;48830;53.426;10.300;2024-02-26T04:27:50;100410.72;;;23.00;64.00
62791;BME280;48830;53.426;10.300;2024-02-26T04:30:15;100412.41;;;23.01;63.71
62791;BME280;48830;53.426;10.300;2024-02-26T04:32:42;100414.13;;;23.02;63.76
62791;BME280;48830;53.426;10.300;2024-02-26T04:35:07;100409.72;;;23.02;63.59
62791;BME280;48830;53.426;10.300;2024-02-26T04:37:33;100415.03;;;23.01;63.08
62791;BME280;48830;53.426;10.300;2024-02-26T04:39:59;100421.06;;;23.03;63.75
62791;BME280;48830;53.426;10.300;2024-02-26T04:42:25;100421.84;;;23.05;63.52
62791;BME280;48830;53.426;10.300;2024-02-26T04:44:51;100428.81;;;23.06;63.57
62791;BME280;48830;53.426;10.300;2024-02-26T04:47:16;100421.84;;;23.05;63.19
62791;BME280;48830;53.426;10.300;2024-02-26T04:49:41;100426.06;;;23.09;62.97
62791;BME280;48830;53.426;10.300;2024-02-26T04:52:07;100424.22;;;23.11;63.54
62791;BME280;48830;53.426;10.300;2024-02-26T04:54:33;100426.06;;;23.09;63.53
62791;BME280;48830;53.426;10.300;2024-02-26T04:56:58;100429.56;;;23.08;63.41
62791;BME280;48830;53.426;10.300;2024-02-26T04:59:24;100425.22;;;23.09;63.13
62791;BME280;48830;53.426;10.300;2024-02-26T05:01:49;100433.00;;;23.10;63.13
62791;BME280;48830;53.426;10.300;2024-02-26T05:04:16;100427.63;;;23.13;63.00
62791;BME280;48830;53.426;10.300;2024-02-26T05:06:42;100430.25;;;23.13;63.11
62791;BME280;48830;53.426;10.300;2024-02-26T05:09:07;100433.72;;;23.14;62.92
62791;BME280;48830;53.426;10.300;2024-02-26T05:11:33;100438.09;;;23.13;63.11
62791;BME280;48830;53.426;10.300;2024-02-26T05:13:58;100439.75;;;23.16;63.38
62791;BME280;48830;53.426;10.300;2024-02-26T05:16:25;100446.69;;;23.17;63.04
62791;BME280;48830;53.426;10.300;2024-02-26T05:18:52;100447.63;;;23.16;63.42
62791;BME280;48830;53.426;10.300;2024-02-26T05:21:18;100445.75;;;23.19;63.08
62791;BME280;48830;53.426;10.300;2024-02-26T05:23:43;100443.13;;;23.19;63.39
62791;BME280;48830;53.426;10.300;2024-02-26T05:26:09;100441.28;;;23.21;63.12
62791;BME280;48830;53.426;10.300;2024-02-26T05:28:34;100441.28;;;23.21;63.23
62791;BME280;48830;53.426;10.300;2024-02-26T05:31:00;100439.41;;;23.23;62.93
62791;BME280;48830;53.426;10.300;2024-02-26T05:33:26;100446.38;;;23.24;63.04
62791;BME280;48830;53.426;10.300;2024-02-26T05:35:51;100448.09;;;23.25;62.83
62791;BME280;48830;53.426;10.300;2024-02-26T05:38:17;100453.28;;;23.27;62.53
62791;BME280;48830;53.426;10.300;2024-02-26T05:40:42;100447.09;;;23.28;63.29
62791;BME280;48830;53.426;10.300;2024-02-26T05:43:08;100455.81;;;23.28;62.98
62791;BME280;48830;53.426;10.300;2024-02-26T05:45:33;100460.13;;;23.29;63.22
62791;BME280;48830;53.426;10.300;2024-02-26T05:47:58;100459.25;;;23.30;62.61
62791;BME280;48830;53.426;10.300;2024-02-26T05:50:24;100464.50;;;23.30;62.76
62791;BME280;48830;53.426;10.300;2024-02-26T05:52:49;100469.75;;;23.30;62.62
62791;BME280;48830;53.426;10.300;2024-02-26T05:55:15;100471.44;;;23.31;62.82
62791;BME280;48830;53.426;10.300;2024-02-26T05:57:40;100470.50;;;23.33;62.66
62791;BME280;48830;53.426;10.300;2024-02-26T06:00:06;100475.75;;;23.33;62.62
62791;BME280;48830;53.426;10.300;2024-02-26T06:02:38;100480.00;;;23.35;62.41
62791;BME280;48830;53.426;10.300;2024-02-26T06:05:04;100474.75;;;23.35;62.72
62791;BME280;48830;53.426;10.300;2024-02-26T06:07:29;100478.31;;;23.34;62.98
62791;BME280;48830;53.426;10.300;2024-02-26T06:09:55;100481.66;;;23.38;62.42
62791;BME280;48830;53.426;10.300;2024-02-26T06:12:20;100480.75;;;23.39;62.65
62791;BME280;48830;53.426;10.300;2024-02-26T06:14:45;100471.94;;;23.40;62.25
62791;BME280;48830;53.426;10.300;2024-02-26T06:17:11;100479.03;;;23.38;63.06
62791;BME280;48830;53.426;10.300;2024-02-26T06:19:36;100477.19;;;23.40;62.67
62791;BME280;48830;53.426;10.300;2024-02-26T06:22:01;100479.78;;;23.41;62.79
62791;BME280;48830;53.426;10.300;2024-02-26T06:24:27;100485.13;;;23.38;62.49
62791;BME280;48830;53.426;10.300;2024-02-26T06:26:52;100489.38;;;23.41;62.38
62791;BME280;48830;53.426;10.300;2024-02-26T06:29:18;100488.50;;;23.42;62.63
62791;BME280;48830;53.426;10.300;2024-02-26T06:31:43;100487.56;;;23.43;61.89
62791;BME280;48830;53.426;10.300;2024-02-26T06:34:09;100489.28;;;23.44;62.28
62791;BME280;48830;53.426;10.300;2024-02-26T06:36:34;100494.41;;;23.47;62.42
62791;BME280;48830;53.426;10.300;2024-02-26T06:39:00;100497.91;;;23.46;62.56
62791;BME280;48830;53.426;10.300;2024-02-26T06:41:25;100497.91;;;23.46;62.59
62791;BME280;48830;53.426;10.300;2024-02-26T06:43:53;100503.03;;;23.49;62.08
62791;BME280;48830;53.426;10.300;2024-02-26T06:46:19;100498.72;;;23.48;62.38
62791;BME280;48830;53.426;10.300;2024-02-26T06:48:44;100496.94;;;23.48;62.64
62791;BME280;48830;53.426;10.300;2024-02-26T06:51:09;100500.50;;;23.47;62.73
62791;BME280;48830;53.426;10.300;2024-02-26T06:53:35;100506.44;;;23.51;62.36
62791;BME280;48830;53.426;10.300;2024-02-26T06:56:00;100509.13;;;23.49;62.48
62791;BME280;48830;53.426;10.300;2024-02-26T06:58:25;100510.00;;;23.50;62.32
62791;BME280;48830;53.426;10.300;2024-02-26T07:00:51;100510.78;;;23.52;62.13
62791;BME280;48830;53.426;10.300;2024-02-26T07:03:16;100507.16;;;23.54;62.16
62791;BME280;48830;53.426;10.300;2024-02-26T07:05:42;100515.13;;;23.53;62.07
62791;BME280;48830;53.426;10.300;2024-02-26T07:08:07;100518.50;;;23.55;62.46
62791;BME280;48830;53.426;10.300;2024-02-26T07:10:32;100515.91;;;23.55;62.48
62791;BME280;48830;53.426;10.300;2024-02-26T07:12:58;100515.81;;;23.56;61.89
62791;BME280;48830;53.426;10.300;2024-02-26T07:15:24;100515.81;;;23.56;61.93
62791;BME280;48830;53.426;10.300;2024-02-26T07:17:49;100522.06;;;23.54;61.97
62791;BME280;48830;53.426;10.300;2024-02-26T07:20:15;100527.19;;;23.57;61.81
62791;BME280;48830;53.426;10.300;2024-02-26T07:22:41;100528.94;;;23.56;61.68
62791;BME280;48830;53.426;10.300;2024-02-26T07:25:08;100536.75;;;23.58;61.89
62791;BME280;48830;53.426;10.300;2024-02-26T07:27:34;100541.16;;;23.57;62.01
62791;BME280;48830;53.426;10.300;2024-02-26T07:29:59;100543.63;;;23.61;62.17
62791;BME280;48830;53.426;10.300;2024-02-26T07:32:24;100551.50;;;23.61;61.64
62791;BME280;48830;53.426;10.300;2024-02-26T07:34:50;100563.78;;;23.60;62.38
62791;BME280;48830;53.426;10.300;2024-02-26T07:37:15;100559.38;;;23.61;62.22
62791;BME280;48830;53.426;10.300;2024-02-26T07:39:41;100561.94;;;23.62;62.22
62791;BME280;48830;53.426;10.300;2024-02-26T07:42:06;100565.41;;;23.64;61.98
62791;BME280;48830;53.426;10.300;2024-02-26T07:44:33;100568.81;;;23.66;62.08
62791;BME280;48830;53.426;10.300;2024-02-26T07:46:58;100566.25;;;23.65;62.36
62791;BME280;48830;53.426;10.300;2024-02-26T07:49:23;100579.31;;;23.66;62.23
62791;BME280;48830;53.426;10.300;2024-02-26T07:51:49;100570.50;;;23.67;61.79
62791;BME280;48830;53.426;10.300;2024-02-26T07:54:14;100574.91;;;23.67;62.06
62791;BME280;48830;53.426;10.300;2024-02-26T07:56:41;100571.38;;;23.68;61.78
62791;BME280;48830;53.426;10.300;2024-02-26T07:59:07;100580.09;;;23.68;61.81
62791;BME280;48830;53.426;10.300;2024-02-26T08:01:32;100581.72;;;23.71;61.76
62791;BME280;48830;53.426;10.300;2024-02-26T08:03:58;100578.19;;;23.72;61.74
62791;BME280;48830;53.426;10.300;2024-02-26T08:06:24;100582.66;;;23.70;62.25
62791;BME280;48830;53.426;10.300;2024-02-26T08:08:50;100581.66;;;23.72;61.80
62791;BME280;48830;53.426;10.300;2024-02-26T08:11:16;100589.53;;;23.72;62.11
62791;BME280;48830;53.426;10.300;2024-02-26T08:13:41;100587.84;;;23.71;61.87
62791;BME280;48830;53.426;10.300;2024-02-26T08:16:07;100588.56;;;23.75;61.98
62791;BME280;48830;53.426;10.300;2024-02-26T08:18:32;100594.66;;;23.75;61.55
62791;BME280;48830;53.426;10.300;2024-02-26T08:20:58;100594.66;;;23.75;61.61
62791;BME280;48830;53.426;10.300;2024-02-26T08:23:23;100605.16;;;23.75;61.46
62791;BME280;48830;53.426;10.300;2024-02-26T08:25:50;100604.25;;;23.76;61.65
62791;BME280;48830;53.426;10.300;2024-02-26T08:28:15;100605.16;;;23.75;61.91
62791;BME280;48830;53.426;10.300;2024-02-26T08:30:43;100610.25;;;23.78;61.62
62791;BME280;48830;53.426;10.300;2024-02-26T08:33:08;100612.03;;;23.78;61.51
62791;BME280;48830;53.426;10.300;2024-02-26T08:35:34;100611.25;;;23.76;61.52
62791;BME280;48830;53.426;10.300;2024-02-26T08:37:59;100617.38;;;23.76;61.69
62791;BME280;48830;53.426;10.300;2024-02-26T08:40:24;100615.50;;;23.78;62.03
62791;BME280;48830;53.426;10.300;2024-02-26T08:42:50;100617.19;;;23.81;61.61
62791;BME280;48830;53.426;10.300;2024-02-26T08:45:15;100617.25;;;23.79;61.83
62791;BME280;48830;53.426;10.300;2024-02-26T08:47:41;100622.50;;;23.79;62.05
62791;BME280;48830;53.426;10.300;2024-02-26T08:50:06;100624.19;;;23.80;61.88
62791;BME280;48830;53.426;10.300;2024-02-26T08:52:32;100624.88;;;23.86;61.47
62791;BME280;48830;53.426;10.300;2024-02-26T08:54:58;100635.28;;;23.87;61.91
62791;BME280;48830;53.426;10.300;2024-02-26T08:57:24;100632.59;;;23.89;61.84
62791;BME280;48830;53.426;10.300;2024-02-26T08:59:52;100629.78;;;23.93;62.09
62791;BME280;48830;53.426;10.300;2024-02-26T09:02:17;100623.41;;;23.99;62.38
62791;BME280;48830;53.426;10.300;2024-02-26T09:04:45;100628.53;;;24.02;62.48
62791;BME280;48830;53.426;10.300;2024-02-26T09:07:10;100630.25;;;24.03;62.43
62791;BME280;48830;53.426;10.300;2024-02-26T09:09:35;100629.19;;;24.07;62.43
62791;BME280;48830;53.426;10.300;2024-02-26T09:12:02;100630.91;;;24.08;62.36
62791;BME280;48830;53.426;10.300;2024-02-26T09:14:27;100629.84;;;24.12;61.96
62791;BME280;48830;53.426;10.300;2024-02-26T09:16:52;100629.84;;;24.12;62.21
62791;BME280;48830;53.426;10.300;2024-02-26T09:19:18;100636.03;;;24.11;62.17
62791;BME280;48830;53.426;10.300;2024-02-26T09:21:44;100630.91;;;24.08;62.16
62791;BME280;48830;53.426;10.300;2024-02-26T09:24:11;100642.06;;;24.13;62.16
62791;BME280;48830;53.426;10.300;2024-02-26T09:26:37;100632.09;;;24.01;55.78
62791;BME280;48830;53.426;10.300;2024-02-26T09:29:02;100638.50;;;22.61;49.28
62791;BME280;48830;53.426;10.300;2024-02-26T09:31:29;100639.91;;;22.46;54.56
62791;BME280;48830;53.426;10.300;2024-02-26T09:33:55;100636.16;;;22.76;56.13
62791;BME280;48830;53.426;10.300;2024-02-26T09:36:20;100641.78;;;23.13;58.69
62791;BME280;48830;53.426;10.300;2024-02-26T09:38:46;100648.75;;;23.36;59.08
62791;BME280;48830;53.426;10.300;2024-02-26T09:41:15;100648.13;;;23.51;60.10
62791;BME280;48830;53.426;10.300;2024-02-26T09:43:45;100645.13;;;23.60;59.86
62791;BME280;48830;53.426;10.300;2024-02-26T09:46:11;100651.84;;;23.67;60.34
62791;BME280;48830;53.426;10.300;2024-02-26T09:48:37;100654.25;;;23.73;60.66
62791;BME280;48830;53.426;10.300;2024-02-26T09:51:03;100657.50;;;23.78;60.52
62791;BME280;48830;53.426;10.300;2024-02-26T09:53:30;100646.91;;;23.81;60.71
62791;BME280;48830;53.426;10.300;2024-02-26T09:55:57;100657.28;;;23.85;60.54
62791;BME280;48830;53.426;10.300;2024-02-26T09:58:24;100654.44;;;23.89;61.20
62791;BME280;48830;53.426;10.300;2024-02-26T10:00:55;100657.94;;;23.90;60.81
62791;BME280;48830;53.426;10.300;2024-02-26T10:03:22;100652.47;;;23.94;61.43
62791;BME280;48830;53.426;10.300;2024-02-26T10:05:50;100660.31;;;23.96;61.32
62791;BME280;48830;53.426;10.300;2024-02-26T10:08:16;100657.50;;;24.00;60.85
62791;BME280;48830;53.426;10.300;2024-02-26T10:10:44;100660.06;;;24.02;61.26
62791;BME280;48830;53.426;10.300;2024-02-26T10:13:10;100660.97;;;24.01;61.25
62791;BME280;48830;53.426;10.300;2024-02-26T10:15:37;100664.38;;;24.03;61.05
62791;BME280;48830;53.426;10.300;2024-02-26T10:18:06;100664.19;;;24.07;61.12
62791;BME280;48830;53.426;10.300;2024-02-26T10:20:31;100665.03;;;24.08;61.32
62791;BME280;48830;53.426;10.300;2024-02-26T10:22:57;100657.03;;;24.11;61.50
62791;BME280;48830;53.426;10.300;2024-02-26T10:25:23;100670.03;;;24.14;61.52
62791;BME280;48830;53.426;10.300;2024-02-26T10:27:49;100660.31;;;24.16;61.50
62791;BME280;48830;53.426;10.300;2024-02-26T10:30:19;100678.56;;;24.19;61.50
62791;BME280;48830;53.426;10.300;2024-02-26T10:32:49;100675.16;;;24.17;61.22
62791;BME280;48830;53.426;10.300;2024-02-26T10:35:15;100674.88;;;24.23;61.61
62791;BME280;48830;53.426;10.300;2024-02-26T10:37:41;100682.63;;;24.26;61.40
62791;BME280;48830;53.426;10.300;2024-02-26T10:40:16;100681.72;;;24.27;61.05
62791;BME280;48830;53.426;10.300;2024-02-26T10:42:42;100690.56;;;24.25;61.22
62791;BME280;48830;53.426;10.300;2024-02-26T10:45:09;100696.69;;;24.25;61.30
62791;BME280;48830;53.426;10.300;2024-02-26T10:47:35;100696.50;;;24.30;61.86
62791;BME280;48830;53.426;10.300;2024-02-26T10:50:03;100699.00;;;24.33;61.26
62791;BME280;48830;53.426;10.300;2024-02-26T10:52:31;100698.03;;;24.35;61.65
62791;BME280;48830;53.426;10.300;2024-02-26T10:55:00;100705.84;;;24.37;61.06
62791;BME280;48830;53.426;10.300;2024-02-26T10:57:31;100705.84;;;24.37;61.28
62791;BME280;48830;53.426;10.300;2024-02-26T10:59:59;100699.41;;;24.44;61.38
62791;BME280;48830;53.426;10.300;2024-02-26T11:02:25;100699.41;;;24.44;61.04
62791;BME280;48830;53.426;10.300;2024-02-26T11:04:52;100697.63;;;24.45;61.65
62791;BME280;48830;53.426;10.300;2024-02-26T11:07:17;100695.72;;;24.48;61.14
62791;BME280;48830;53.426;10.300;2024-02-26T11:09:45;100695.59;;;24.51;61.37
62791;BME280;48830;53.426;10.300;2024-02-26T11:12:18;100691.19;;;24.52;61.44
62791;BME280;48830;53.426;10.300;2024-02-26T11:14:46;100693.72;;;24.53;61.40
62791;BME280;48830;53.426;10.300;2024-02-26T11:17:13;100698.94;;;24.55;61.21
62791;BME280;48830;53.426;10.300;2024-02-26T11:19:38;100695.38;;;24.56;61.20
62791;BME280;48830;53.426;10.300;2024-02-26T11:22:06;100698.78;;;24.58;61.15
62791;BME280;48830;53.426;10.300;2024-02-26T11:24:32;100696.16;;;24.58;61.55
62791;BME280;48830;53.426;10.300;2024-02-26T11:27:01;100698.88;;;24.56;61.92
62791;BME280;48830;53.426;10.300;2024-02-26T11:29:33;100704.19;;;24.55;61.84
62791;BME280;48830;53.426;10.300;2024-02-26T11:32:00;100698.88;;;24.56;61.53
62791;BME280;48830;53.426;10.300;2024-02-26T11:34:26;100703.28;;;24.56;61.99
62791;BME280;48830;53.426;10.300;2024-02-26T11:36:52;100705.81;;;24.57;62.00
62791;BME280;48830;53.426;10.300;2024-02-26T11:39:17;100704.03;;;24.58;61.68
62791;BME280;48830;53.426;10.300;2024-02-26T11:41:43;100706.75;;;24.56;61.53
62791;BME280;48830;53.426;10.300;2024-02-26T11:44:09;100708.38;;;24.59;61.75
62791;BME280;48830;53.426;10.300;2024-02-26T11:46:42;100707.69;;;24.55;61.56
62791;BME280;48830;53.426;10.300;2024-02-26T11:51:55;100712.94;;;24.55;61.80
62791;BME280;48830;53.426;10.300;2024-02-26T11:54:44;100717.19;;;24.58;61.70
62791;BME280;48830;53.426;10.300;2024-02-26T12:02:52;100719.03;;;24.56;61.85
62791;BME280;48830;53.426;10.300;2024-02-26T12:05:26;100726.16;;;24.54;61.67
62791;BME280;48830;53.426;10.300;2024-02-26T12:08:00;100719.03;;;24.56;61.60
62791;BME280;48830;53.426;10.300;2024-02-26T12:10:27;100715.47;;;24.57;62.00
62791;BME280;48830;53.426;10.300;2024-02-26T12:13:21;100723.38;;;24.57;61.44
62791;BME280;48830;53.426;10.300;2024-02-26T12:15:57;100726.19;;;24.52;61.51
62791;BME280;48830;53.426;10.300;2024-02-26T12:18:23;100734.22;;;24.49;61.96
62791;BME280;48830;53.426;10.300;2024-02-26T12:21:02;100743.75;;;24.52;61.67
62791;BME280;48830;53.426;10.300;2024-02-26T12:23:27;100744.66;;;24.51;61.92
62791;BME280;48830;53.426;10.300;2024-02-26T12:25:54;100742.16;;;24.48;61.79
62791;BME280;48830;53.426;10.300;2024-02-26T12:28:27;100754.25;;;24.52;62.09
62791;BME280;48830;53.426;10.300;2024-02-26T12:30:53;100755.44;;;24.45;62.64
62791;BME280;48830;53.426;10.300;2024-02-26T12:33:18;100752.66;;;24.48;62.38
62791;BME280;48830;53.426;10.300;2024-02-26T12:35:43;100750.03;;;24.48;62.59
62791;BME280;48830;53.426;10.300;2024-02-26T12:38:14;100755.19;;;24.51;62.50
62791;BME280;48830;53.426;10.300;2024-02-26T12:40:40;100756.69;;;24.56;61.77
62791;BME280;48830;53.426;10.300;2024-02-26T12:43:05;100755.84;;;24.56;62.23
62791;BME280;48830;53.426;10.300;2024-02-26T12:45:32;100757.63;;;24.55;61.77